Time;durP1;ratioP1;P1;durP2;ratioP2;P2;SDS_P1;SDS_P2;PMS_P1;PMS_P2;Temp;Humidity;BMP_temperature;BMP_pressure;BME280_temperature;BME280_humidity;BME280_pressure;Samples;Min_cycle;Max_cycle;Signal;HPM_P1;HPM_P2
2022/01/15 00:01:14;;;;;;;11.20;6.53;;;;;;;;;;4962983;28;20046;-73
2022/01/15 00:03:42;;;;;;;9.38;6.13;;;;;;;;;;4995920;28;20525;-73
2022/01/15 00:06:10;;;;;;;9.75;6.18;;;;;;;;;;4996592;28;20046;-73
2022/01/15 00:08:39;;;;;;;16.13;6.40;;;;;;;;;;4979412;28;20046;-76
2022/01/15 00:11:06;;;;;;;11.85;6.80;;;;;;;;;;4997063;28;20042;-76
2022/01/15 00:13:35;;;;;;;13.82;7.20;;;;;;;;;;4997245;28;20047;-75
2022/01/15 00:16:09;;;;;;;12.35;6.45;;;;;;;;;;4996565;28;20043;-74
2022/01/15 00:19:01;;;;;;;15.65;6.57;;;;;;;;;;4979404;28;20398;-74
2022/01/15 00:21:29;;;;;;;14.10;5.88;;;;;;;;;;4979122;28;20054;-76
2022/01/15 00:23:57;;;;;;;11.35;6.22;;;;;;;;;;4996508;28;20046;-75
2022/01/15 00:26:25;;;;;;;9.98;5.95;;;;;;;;;;4996686;28;20057;-73
2022/01/15 00:28:54;;;;;;;12.32;6.45;;;;;;;;;;4996587;28;20038;-74
2022/01/15 00:31:24;;;;;;;10.40;6.35;;;;;;;;;;4996382;28;20034;-74
2022/01/15 00:33:52;;;;;;;9.05;6.05;;;;;;;;;;4996701;28;20045;-74
2022/01/15 00:36:20;;;;;;;8.10;5.82;;;;;;;;;;4979301;28;20065;-75
2022/01/15 00:38:48;;;;;;;9.27;5.55;;;;;;;;;;4963452;28;20050;-73
2022/01/15 00:41:18;;;;;;;14.65;6.18;;;;;;;;;;4979037;28;20049;-74
2022/01/15 00:43:46;;;;;;;8.10;5.13;;;;;;;;;;4996360;28;20048;-75
2022/01/15 00:46:14;;;;;;;8.38;5.78;;;;;;;;;;4996140;28;20049;-75
2022/01/15 00:48:42;;;;;;;10.93;5.47;;;;;;;;;;4978736;28;20438;-74
2022/01/15 00:51:10;;;;;;;11.13;6.13;;;;;;;;;;4996129;28;20482;-77
2022/01/15 00:53:38;;;;;;;11.95;5.47;;;;;;;;;;4995986;28;20045;-73
2022/01/15 00:56:07;;;;;;;8.40;5.18;;;;;;;;;;4996489;28;20035;-73
2022/01/15 00:58:36;;;;;;;9.55;5.78;;;;;;;;;;4995733;28;20038;-75
2022/01/15 01:01:04;;;;;;;10.50;5.28;;;;;;;;;;4978765;28;20046;-74
2022/01/15 01:03:32;;;;;;;12.88;6.00;;;;;;;;;;4995697;28;20354;-74
2022/01/15 01:06:00;;;;;;;9.18;5.95;;;;;;;;;;4978769;28;20265;-73
2022/01/15 01:08:28;;;;;;;7.55;4.93;;;;;;;;;;4996148;28;20504;-74
2022/01/15 01:10:58;;;;;;;7.13;4.95;;;;;;;;;;4978454;28;20038;-74
2022/01/15 01:24:53;;;;;;;7.90;4.80;;;;;;;;;;4897857;29;20061;-74
2022/01/15 01:27:29;;;;;;;7.82;4.88;;;;;;;;;;4897703;29;20057;-75
2022/01/15 01:34:53;;;;;;;8.07;4.75;;;;;;;;;;4897618;29;20127;-73
2022/01/15 01:37:34;;;;;;;7.45;4.63;;;;;;;;;;4897862;29;20405;-73
2022/01/15 01:42:58;;;;;;;7.93;4.30;;;;;;;;;;4884493;29;20127;-76
2022/01/15 01:45:25;;;;;;;9.80;4.90;;;;;;;;;;4897591;29;20169;-76
2022/01/15 01:47:53;;;;;;;6.82;4.70;;;;;;;;;;4897340;29;20044;-76
2022/01/15 01:50:22;;;;;;;8.80;4.40;;;;;;;;;;4925543;28;20059;-76
2022/01/15 01:52:57;;;;;;;7.38;4.45;;;;;;;;;;4975516;28;20494;-75
2022/01/15 01:55:26;;;;;;;9.10;4.50;;;;;;;;;;4975749;28;20042;-76
2022/01/15 01:57:55;;;;;;;8.00;4.35;;;;;;;;;;4975810;28;20223;-76
2022/01/15 02:00:24;;;;;;;12.98;4.60;;;;;;;;;;4959161;28;20049;-76
2022/01/15 02:02:52;;;;;;;6.68;4.53;;;;;;;;;;4975399;28;20062;-76
2022/01/15 02:05:24;;;;;;;5.82;3.85;;;;;;;;;;4958636;28;20109;-77
2022/01/15 02:07:51;;;;;;;9.65;4.70;;;;;;;;;;4957667;28;20038;-75
2022/01/15 02:10:20;;;;;;;10.10;4.45;;;;;;;;;;4974948;28;20039;-75
2022/01/15 02:12:51;;;;;;;7.93;4.70;;;;;;;;;;4972789;28;20415;-76
2022/01/15 02:15:21;;;;;;;9.07;4.35;;;;;;;;;;4958017;28;20512;-75
2022/01/15 02:17:53;;;;;;;5.93;4.32;;;;;;;;;;4975104;28;20047;-76
2022/01/15 02:25:53;;;;;;;7.68;4.38;;;;;;;;;;4976413;28;20110;-77
2022/01/15 02:28:24;;;;;;;5.18;3.47;;;;;;;;;;4976692;28;20046;-76
2022/01/15 02:30:53;;;;;;;8.75;4.32;;;;;;;;;;4976995;28;20069;-75
2022/01/15 02:33:21;;;;;;;9.82;4.20;;;;;;;;;;4994336;28;20504;-75
2022/01/15 02:35:49;;;;;;;6.07;4.13;;;;;;;;;;4994336;28;20053;-75
2022/01/15 02:38:19;;;;;;;6.57;3.88;;;;;;;;;;4994334;28;20046;-76
2022/01/15 02:40:47;;;;;;;7.28;3.90;;;;;;;;;;4993733;28;20053;-75
2022/01/15 02:43:18;;;;;;;7.00;4.13;;;;;;;;;;4976853;28;20054;-77
2022/01/15 02:45:58;;;;;;;5.45;3.58;;;;;;;;;;4994247;28;20042;-77
2022/01/15 02:48:26;;;;;;;6.65;3.95;;;;;;;;;;4994230;28;20112;-77
2022/01/15 02:50:54;;;;;;;8.55;3.70;;;;;;;;;;4994249;28;20034;-76
2022/01/15 02:53:24;;;;;;;5.80;3.50;;;;;;;;;;4993771;28;20046;-77
2022/01/15 02:55:53;;;;;;;5.90;4.22;;;;;;;;;;4993957;28;20054;-77
2022/01/15 02:58:24;;;;;;;8.30;4.18;;;;;;;;;;4994436;28;20050;-75
2022/01/15 03:00:53;;;;;;;7.97;3.95;;;;;;;;;;4976572;28;20070;-76
2022/01/15 03:03:21;;;;;;;8.00;3.83;;;;;;;;;;4975800;28;20050;-76
2022/01/15 03:05:48;;;;;;;4.82;3.55;;;;;;;;;;4993610;28;20465;-75
2022/01/15 03:08:16;;;;;;;5.57;3.45;;;;;;;;;;4976607;28;20121;-78
2022/01/15 03:10:44;;;;;;;5.00;3.17;;;;;;;;;;4960395;28;20046;-75
2022/01/15 03:13:13;;;;;;;7.38;3.40;;;;;;;;;;4976421;28;20039;-75
2022/01/15 03:15:42;;;;;;;6.88;3.65;;;;;;;;;;4960465;28;20050;-73
2022/01/15 03:18:10;;;;;;;8.05;3.92;;;;;;;;;;4993430;28;20478;-76
2022/01/15 03:20:38;;;;;;;8.63;4.32;;;;;;;;;;4976121;28;20050;-75
2022/01/15 03:23:06;;;;;;;6.53;4.00;;;;;;;;;;4976490;28;20386;-77
2022/01/15 03:25:34;;;;;;;7.38;3.90;;;;;;;;;;4993675;28;20042;-77
2022/01/15 03:28:02;;;;;;;7.78;4.82;;;;;;;;;;4975574;28;20425;-76
2022/01/15 03:30:30;;;;;;;9.75;5.32;;;;;;;;;;4993431;28;20042;-76
2022/01/15 03:32:57;;;;;;;9.63;5.95;;;;;;;;;;4960081;28;20060;-75
2022/01/15 03:35:25;;;;;;;13.20;7.28;;;;;;;;;;4976207;28;20038;-75
2022/01/15 03:37:52;;;;;;;13.90;6.82;;;;;;;;;;4975019;28;20065;-77
2022/01/15 03:40:22;;;;;;;9.23;5.78;;;;;;;;;;4993125;28;20050;-76
2022/01/15 03:42:50;;;;;;;8.98;5.30;;;;;;;;;;4993154;28;20048;-75
2022/01/15 03:45:17;;;;;;;8.85;5.05;;;;;;;;;;4993512;28;20497;-75
2022/01/15 03:47:46;;;;;;;8.57;4.55;;;;;;;;;;4993417;28;20034;-75
2022/01/15 03:50:15;;;;;;;7.25;4.90;;;;;;;;;;4993206;28;20125;-75
2022/01/15 03:52:42;;;;;;;8.25;5.00;;;;;;;;;;4959750;28;20038;-76
2022/01/15 03:55:11;;;;;;;7.57;4.70;;;;;;;;;;4975915;28;20049;-75
2022/01/15 03:57:41;;;;;;;8.40;4.10;;;;;;;;;;4993521;28;20047;-77
2022/01/15 04:00:26;;;;;;;5.50;3.95;;;;;;;;;;4959616;28;20142;-76
2022/01/15 04:02:55;;;;;;;4.18;3.00;;;;;;;;;;4975725;28;20053;-77
2022/01/15 04:05:23;;;;;;;8.93;3.83;;;;;;;;;;4992948;28;20502;-75
2022/01/15 04:07:51;;;;;;;5.03;3.33;;;;;;;;;;4993234;28;20046;-77
2022/01/15 04:10:20;;;;;;;4.20;2.88;;;;;;;;;;4993248;28;20039;-76
2022/01/15 04:12:47;;;;;;;4.68;3.10;;;;;;;;;;4993075;28;20081;-76
2022/01/15 04:15:16;;;;;;;4.22;3.40;;;;;;;;;;4993436;28;20050;-76
2022/01/15 04:17:48;;;;;;;8.40;2.90;;;;;;;;;;4974786;28;20125;-75
2022/01/15 04:20:18;;;;;;;4.45;3.30;;;;;;;;;;4977427;28;20066;-75
2022/01/15 04:22:47;;;;;;;5.55;2.80;;;;;;;;;;4975686;28;20046;-75
2022/01/15 04:25:16;;;;;;;7.43;3.28;;;;;;;;;;4959365;28;20421;-76
2022/01/15 04:27:45;;;;;;;5.50;3.00;;;;;;;;;;4975402;28;20047;-75
2022/01/15 04:30:13;;;;;;;5.28;2.92;;;;;;;;;;4992988;28;20050;-77
2022/01/15 04:32:41;;;;;;;3.42;2.67;;;;;;;;;;4993058;28;20042;-76
2022/01/15 04:35:09;;;;;;;5.30;2.67;;;;;;;;;;4975757;28;20093;-76
2022/01/15 04:37:42;;;;;;;5.43;2.75;;;;;;;;;;4975712;28;20066;-77
2022/01/15 04:40:10;;;;;;;3.67;2.70;;;;;;;;;;4992349;28;20050;-76
2022/01/15 04:42:38;;;;;;;5.75;2.90;;;;;;;;;;4975303;28;20050;-75
2022/01/15 04:45:09;;;;;;;7.65;2.88;;;;;;;;;;4975317;28;20046;-77
2022/01/15 04:47:37;;;;;;;5.78;2.60;;;;;;;;;;4992695;28;20038;-75
2022/01/15 04:50:07;;;;;;;6.18;3.28;;;;;;;;;;4996302;28;20125;-77
2022/01/15 04:52:36;;;;;;;5.35;2.60;;;;;;;;;;4995718;28;20038;-76
2022/01/15 04:55:05;;;;;;;7.72;3.10;;;;;;;;;;4978668;28;20468;-76
2022/01/15 04:57:32;;;;;;;7.63;3.22;;;;;;;;;;4995752;28;20057;-75
2022/01/15 05:00:00;;;;;;;6.22;2.97;;;;;;;;;;4996014;28;20044;-77
2022/01/15 05:02:27;;;;;;;5.80;2.97;;;;;;;;;;4995732;28;20417;-77
2022/01/15 05:04:55;;;;;;;6.53;2.72;;;;;;;;;;4995793;28;20042;-76
2022/01/15 05:07:23;;;;;;;4.82;3.20;;;;;;;;;;4978307;28;20042;-77
2022/01/15 05:09:50;;;;;;;7.63;2.92;;;;;;;;;;4978243;28;20041;-76
2022/01/15 05:12:31;;;;;;;5.40;3.55;;;;;;;;;;4995532;28;20109;-76
2022/01/15 05:14:59;;;;;;;3.78;2.95;;;;;;;;;;4996064;28;20039;-75
2022/01/15 05:17:27;;;;;;;7.05;2.53;;;;;;;;;;4978283;28;20431;-76
2022/01/15 05:19:54;;;;;;;5.35;2.60;;;;;;;;;;4961920;28;20394;-75
2022/01/15 05:22:23;;;;;;;4.32;2.80;;;;;;;;;;4978353;28;20376;-75
2022/01/15 05:24:50;;;;;;;5.43;2.78;;;;;;;;;;4978566;28;20046;-76
2022/01/15 05:27:18;;;;;;;4.13;2.47;;;;;;;;;;4995458;28;20041;-76
2022/01/15 05:29:45;;;;;;;5.38;2.60;;;;;;;;;;4978348;28;20049;-75
2022/01/15 05:32:14;;;;;;;4.80;2.88;;;;;;;;;;4977834;28;20414;-77
2022/01/15 05:34:42;;;;;;;5.40;2.38;;;;;;;;;;4978321;28;20046;-75
2022/01/15 05:37:10;;;;;;;4.10;2.55;;;;;;;;;;4995301;28;20523;-75
2022/01/15 05:39:37;;;;;;;5.43;2.83;;;;;;;;;;4995340;28;20042;-75
2022/01/15 05:42:05;;;;;;;4.70;2.70;;;;;;;;;;4970264;28;20516;-77
2022/01/15 05:44:34;;;;;;;4.80;2.35;;;;;;;;;;4977755;28;20399;-77
2022/01/15 05:47:04;;;;;;;4.05;2.55;;;;;;;;;;4995312;28;20042;-75
2022/01/15 05:49:32;;;;;;;5.10;2.95;;;;;;;;;;4977887;28;20129;-75
2022/01/15 05:52:01;;;;;;;3.47;2.70;;;;;;;;;;4995105;28;20482;-76
2022/01/15 05:54:29;;;;;;;4.32;3.17;;;;;;;;;;4995049;28;20046;-75
2022/01/15 05:56:59;;;;;;;7.43;3.28;;;;;;;;;;4995416;28;20486;-77
2022/01/15 05:59:26;;;;;;;5.40;3.67;;;;;;;;;;4961161;28;20430;-75
2022/01/15 06:01:54;;;;;;;7.28;3.92;;;;;;;;;;4995010;28;20044;-76
2022/01/15 06:04:21;;;;;;;6.45;4.47;;;;;;;;;;4961919;28;20042;-75
2022/01/15 06:06:50;;;;;;;11.82;7.03;;;;;;;;;;4977915;28;20042;-76
2022/01/15 06:09:21;;;;;;;14.60;7.32;;;;;;;;;;4994946;28;20039;-77
2022/01/15 06:11:54;;;;;;;8.23;5.28;;;;;;;;;;4995031;28;20043;-76
2022/01/15 06:14:23;;;;;;;7.38;4.20;;;;;;;;;;4994758;28;20071;-77
2022/01/15 06:16:51;;;;;;;10.20;3.67;;;;;;;;;;4994977;28;20038;-76
2022/01/15 06:19:20;;;;;;;6.45;3.67;;;;;;;;;;4977074;28;20054;-75
2022/01/15 06:21:47;;;;;;;8.05;3.00;;;;;;;;;;4994579;28;20055;-76
2022/01/15 06:24:17;;;;;;;3.10;2.38;;;;;;;;;;4994844;28;20073;-76
2022/01/15 06:26:44;;;;;;;7.35;3.03;;;;;;;;;;4977072;28;20052;-77
2022/01/15 06:29:12;;;;;;;7.95;2.95;;;;;;;;;;4994626;28;20453;-75
2022/01/15 06:31:40;;;;;;;8.23;3.20;;;;;;;;;;4994593;28;20042;-76
2022/01/15 06:34:08;;;;;;;7.13;3.25;;;;;;;;;;4994649;28;20117;-76
2022/01/15 06:36:35;;;;;;;6.70;3.10;;;;;;;;;;4994314;28;20045;-77
2022/01/15 06:39:03;;;;;;;7.05;3.13;;;;;;;;;;4977280;28;20472;-77
2022/01/15 06:41:31;;;;;;;7.03;2.90;;;;;;;;;;4975878;28;20502;-77
2022/01/15 06:44:00;;;;;;;8.30;2.60;;;;;;;;;;4994088;28;20070;-78
2022/01/15 06:46:27;;;;;;;4.18;2.33;;;;;;;;;;4993892;28;20038;-76
2022/01/15 06:48:55;;;;;;;5.03;2.55;;;;;;;;;;4994015;28;20038;-75
2022/01/15 06:51:25;;;;;;;9.00;2.55;;;;;;;;;;4993831;28;20057;-75
2022/01/15 06:53:52;;;;;;;6.10;2.63;;;;;;;;;;4991317;28;20038;-77
2022/01/15 06:56:20;;;;;;;11.88;5.13;;;;;;;;;;4988121;28;20065;-75
2022/01/15 06:58:51;;;;;;;22.83;5.40;;;;;;;;;;4976621;28;20514;-74
2022/01/15 07:01:18;;;;;;;11.70;4.57;;;;;;;;;;4975933;28;20042;-77
2022/01/15 07:03:46;;;;;;;17.08;5.13;;;;;;;;;;4976046;28;20050;-76
2022/01/15 07:06:14;;;;;;;7.78;4.75;;;;;;;;;;4992930;28;20089;-75
2022/01/15 07:08:42;;;;;;;6.90;4.57;;;;;;;;;;4975943;28;20034;-74
2022/01/15 07:11:11;;;;;;;12.48;4.53;;;;;;;;;;4975882;28;20050;-74
2022/01/15 07:13:38;;;;;;;15.05;4.40;;;;;;;;;;4993522;28;20046;-75
2022/01/15 07:16:06;;;;;;;8.75;4.10;;;;;;;;;;4986701;28;20043;-74
2022/01/15 07:18:34;;;;;;;10.18;4.32;;;;;;;;;;4991175;28;20136;-75
2022/01/15 07:21:02;;;;;;;12.55;4.10;;;;;;;;;;4986353;28;20051;-77
2022/01/15 07:23:29;;;;;;;10.55;4.47;;;;;;;;;;4971291;28;20062;-76
2022/01/15 07:25:57;;;;;;;8.57;3.85;;;;;;;;;;4972934;28;20126;-75
2022/01/15 07:28:26;;;;;;;6.95;4.13;;;;;;;;;;4965827;28;20116;-75
2022/01/15 07:30:54;;;;;;;16.52;5.40;;;;;;;;;;4975760;28;20050;-74
2022/01/15 07:33:23;;;;;;;14.73;6.25;;;;;;;;;;4994016;28;20096;-76
2022/01/15 07:35:52;;;;;;;15.05;6.80;;;;;;;;;;4992780;28;20038;-75
2022/01/15 07:38:20;;;;;;;14.55;7.25;;;;;;;;;;4993282;28;20042;-75
2022/01/15 07:40:48;;;;;;;15.52;8.57;;;;;;;;;;4975667;28;20049;-75
2022/01/15 07:43:15;;;;;;;19.45;9.82;;;;;;;;;;4979303;28;20062;-76
2022/01/15 07:45:43;;;;;;;21.95;12.00;;;;;;;;;;4994955;28;20564;-76
2022/01/15 07:48:11;;;;;;;21.85;12.75;;;;;;;;;;4975642;28;20046;-75
2022/01/15 07:50:40;;;;;;;26.63;13.20;;;;;;;;;;4993400;28;20066;-75
2022/01/15 07:53:09;;;;;;;21.40;10.88;;;;;;;;;;4975124;28;20398;-76
2022/01/15 07:55:37;;;;;;;18.27;10.52;;;;;;;;;;4993064;28;20043;-76
2022/01/15 07:58:05;;;;;;;16.25;9.50;;;;;;;;;;4957277;28;20142;-76
2022/01/15 08:00:33;;;;;;;18.05;8.60;;;;;;;;;;4981352;28;20050;-76
2022/01/15 08:03:01;;;;;;;10.38;6.03;;;;;;;;;;4964131;28;20125;-76
2022/01/15 08:05:30;;;;;;;15.27;5.90;;;;;;;;;;4990303;28;20049;-76
2022/01/15 08:07:57;;;;;;;7.97;4.53;;;;;;;;;;5012407;28;20050;-76
2022/01/15 08:10:27;;;;;;;12.48;4.72;;;;;;;;;;4995120;28;20046;-75
2022/01/15 08:12:57;;;;;;;7.40;3.97;;;;;;;;;;5012854;28;20053;-76
2022/01/15 08:15:25;;;;;;;7.07;4.70;;;;;;;;;;4996804;28;20498;-76
2022/01/15 08:17:53;;;;;;;11.48;4.45;;;;;;;;;;4985268;28;20076;-76
2022/01/15 08:20:24;;;;;;;9.75;4.65;;;;;;;;;;4967092;28;20141;-75
2022/01/15 08:22:52;;;;;;;6.43;4.60;;;;;;;;;;4992127;28;20449;-76
2022/01/15 08:25:22;;;;;;;8.93;5.15;;;;;;;;;;4978628;28;20074;-76
2022/01/15 08:27:49;;;;;;;10.52;5.05;;;;;;;;;;4973494;28;20046;-76
2022/01/15 08:30:17;;;;;;;7.07;4.43;;;;;;;;;;4977293;28;20495;-76
2022/01/15 08:32:46;;;;;;;8.38;4.75;;;;;;;;;;4982130;28;20073;-75
2022/01/15 08:35:15;;;;;;;7.05;4.50;;;;;;;;;;5004763;28;20038;-76
2022/01/15 08:37:43;;;;;;;8.90;4.72;;;;;;;;;;4997136;28;20033;-75
2022/01/15 08:40:14;;;;;;;5.35;3.80;;;;;;;;;;4997992;28;20049;-77
2022/01/15 08:42:42;;;;;;;6.90;4.35;;;;;;;;;;4998110;28;20448;-77
2022/01/15 08:45:10;;;;;;;7.90;4.10;;;;;;;;;;4976977;28;20129;-76
2022/01/15 08:47:38;;;;;;;5.43;3.70;;;;;;;;;;4979405;28;20074;-73
2022/01/15 08:50:06;;;;;;;4.68;3.25;;;;;;;;;;4997025;28;20049;-75
2022/01/15 08:52:34;;;;;;;5.18;2.65;;;;;;;;;;4996608;28;20070;-74
2022/01/15 08:55:02;;;;;;;4.78;3.20;;;;;;;;;;4973005;28;20052;-76
2022/01/15 08:57:29;;;;;;;7.13;3.13;;;;;;;;;;4977809;28;20038;-72
2022/01/15 08:59:57;;;;;;;5.40;3.10;;;;;;;;;;4995570;28;20069;-74
2022/01/15 09:02:25;;;;;;;10.50;6.13;;;;;;;;;;4995683;28;20113;-78
2022/01/15 09:05:01;;;;;;;7.43;5.50;;;;;;;;;;4964569;28;20149;-78
2022/01/15 09:07:34;;;;;;;8.75;4.60;;;;;;;;;;4985915;28;20092;-76
2022/01/15 09:10:03;;;;;;;4.97;3.00;;;;;;;;;;5015309;28;20061;-77
2022/01/15 09:12:34;;;;;;;5.10;3.40;;;;;;;;;;5015076;28;20041;-77
2022/01/15 09:15:22;;;;;;;6.75;4.38;;;;;;;;;;5000501;28;20137;-79
2022/01/15 09:17:55;;;;;;;6.88;4.40;;;;;;;;;;5014567;28;20050;-74
2022/01/15 09:20:22;;;;;;;7.50;4.90;;;;;;;;;;5015044;28;20044;-76
2022/01/15 09:22:54;;;;;;;8.97;3.97;;;;;;;;;;4978214;28;20047;-81
2022/01/15 09:25:22;;;;;;;6.82;3.78;;;;;;;;;;4995714;28;20637;-78
2022/01/15 09:30:39;;;;;;;5.30;3.20;;;;;;;;;;4995008;28;20050;-76
2022/01/15 09:33:08;;;;;;;3.38;2.55;;;;;;;;;;4977830;28;20064;-76
2022/01/15 09:35:37;;;;;;;6.18;2.50;;;;;;;;;;4975601;28;20373;-76
2022/01/15 09:38:05;;;;;;;3.42;2.50;;;;;;;;;;4992490;28;20046;-76
2022/01/15 09:40:33;;;;;;;3.40;1.90;;;;;;;;;;4994250;28;20058;-75
2022/01/15 09:43:02;;;;;;;3.17;2.50;;;;;;;;;;4995002;28;20401;-75
2022/01/15 09:45:29;;;;;;;3.63;2.33;;;;;;;;;;4995330;28;20485;-76
2022/01/15 09:47:59;;;;;;;3.90;2.25;;;;;;;;;;4978086;28;20391;-77
2022/01/15 09:50:28;;;;;;;4.10;2.33;;;;;;;;;;4995537;28;20035;-77
2022/01/15 09:52:56;;;;;;;3.58;2.80;;;;;;;;;;4994898;28;20121;-75
2022/01/15 09:55:27;;;;;;;3.20;2.33;;;;;;;;;;4994415;28;20048;-77
2022/01/15 09:57:58;;;;;;;3.15;2.30;;;;;;;;;;4994777;28;20064;-75
2022/01/15 10:00:26;;;;;;;3.00;2.70;;;;;;;;;;4977821;28;20077;-75
2022/01/15 10:02:58;;;;;;;4.32;2.42;;;;;;;;;;4994597;28;20050;-76
2022/01/15 10:05:29;;;;;;;2.97;2.30;;;;;;;;;;4994315;28;20045;-74
2022/01/15 10:08:02;;;;;;;4.72;3.00;;;;;;;;;;4994650;28;20042;-76
2022/01/15 10:10:36;;;;;;;9.30;4.80;;;;;;;;;;4993675;28;20065;-77
2022/01/15 10:13:20;;;;;;;9.15;4.15;;;;;;;;;;4991154;28;20043;-77
2022/01/15 10:15:51;;;;;;;7.65;4.50;;;;;;;;;;4974986;28;20141;-75
2022/01/15 10:18:24;;;;;;;5.47;4.00;;;;;;;;;;5007060;23;20059;-67
2022/01/15 10:20:55;;;;;;;6.47;3.88;;;;;;;;;;5099401;28;20035;-67
2022/01/15 10:23:24;;;;;;;5.90;4.07;;;;;;;;;;5073377;28;20094;-67
2022/01/15 10:26:10;;;;;;;7.63;4.55;;;;;;;;;;5092669;28;20048;-67
2022/01/15 10:28:49;;;;;;;5.88;3.70;;;;;;;;;;5115709;27;20122;-68
2022/01/15 10:31:21;;;;;;;5.85;4.22;;;;;;;;;;5119140;27;20039;-67
2022/01/15 10:33:51;;;;;;;9.63;4.97;;;;;;;;;;5113751;28;20048;-66
2022/01/15 10:36:26;;;;;;;10.93;5.35;;;;;;;;;;5114037;28;20428;-67
2022/01/15 10:39:14;;;;;;;8.02;5.55;;;;;;;;;;5113830;28;20115;-68
2022/01/15 10:41:44;;;;;;;12.00;6.00;;;;;;;;;;5113629;28;20051;-69
2022/01/15 10:44:33;;;;;;;9.60;5.20;;;;;;;;;;5113710;28;20051;-69
2022/01/15 10:47:03;;;;;;;7.68;4.63;;;;;;;;;;5113312;28;20118;-70
2022/01/15 10:49:34;;;;;;;9.43;4.88;;;;;;;;;;5113688;28;20043;-69
2022/01/15 10:52:08;;;;;;;7.40;5.22;;;;;;;;;;5097547;28;20115;-69
2022/01/15 10:55:00;;;;;;;8.65;5.22;;;;;;;;;;5113391;28;20562;-69
2022/01/15 10:57:30;;;;;;;8.05;5.70;;;;;;;;;;5100115;28;20105;-69
2022/01/15 11:00:04;;;;;;;11.32;6.68;;;;;;;;;;5113431;28;20047;-69
2022/01/15 11:02:31;;;;;;;11.57;7.82;;;;;;;;;;5113435;28;20118;-69
2022/01/15 11:04:59;;;;;;;14.48;8.68;;;;;;;;;;5113022;28;20418;-68
2022/01/15 11:07:27;;;;;;;14.07;8.88;;;;;;;;;;5113445;28;20046;-69
2022/01/15 11:09:54;;;;;;;11.55;8.45;;;;;;;;;;5104759;28;20054;-68
2022/01/15 11:12:27;;;;;;;9.65;7.00;;;;;;;;;;5102761;28;20032;-69
2022/01/15 11:14:54;;;;;;;;;;;;;;;;;;5101026;28;20634;-69
2022/01/15 11:17:21;;;;;;;8.52;6.18;;;;;;;;;;5102541;28;19926;-69
2022/01/15 11:19:52;;;;;;;9.30;5.40;;;;;;;;;;5104835;28;20130;-69
2022/01/15 11:22:22;;;;;;;7.80;5.18;;;;;;;;;;5104835;28;20115;-69
2022/01/15 11:24:51;;;;;;;9.07;5.20;;;;;;;;;;5072039;28;20048;-68
2022/01/15 11:27:19;;;;;;;6.82;4.32;;;;;;;;;;5089501;28;20056;-68
2022/01/15 11:29:47;;;;;;;6.22;4.50;;;;;;;;;;5109058;28;20031;-69
2022/01/15 11:32:16;;;;;;;6.47;4.10;;;;;;;;;;5106008;28;20032;-69
2022/01/15 11:34:58;;;;;;;6.82;5.05;;;;;;;;;;5106032;28;20119;-70
2022/01/15 11:37:26;;;;;;;6.78;5.10;;;;;;;;;;5112673;28;20036;-69
2022/01/15 11:39:55;;;;;;;6.00;4.30;;;;;;;;;;5107909;28;20043;-69
2022/01/15 11:42:35;;;;;;;5.53;4.30;;;;;;;;;;5104651;28;20067;-69
2022/01/15 11:45:03;;;;;;;5.80;4.18;;;;;;;;;;5108748;28;20498;-69
2022/01/15 11:47:32;;;;;;;5.30;3.97;;;;;;;;;;5089455;28;20051;-69
2022/01/15 11:50:18;;;;;;;6.18;4.03;;;;;;;;;;5107921;28;20040;-69
2022/01/15 11:52:45;;;;;;;6.50;4.32;;;;;;;;;;5085911;28;20402;-70
2022/01/15 11:55:14;;;;;;;5.28;4.13;;;;;;;;;;5105852;28;20491;-73
2022/01/15 11:57:47;;;;;;;4.88;3.50;;;;;;;;;;5107760;28;20040;-73
2022/01/15 12:00:22;;;;;;;5.95;3.97;;;;;;;;;;5107006;28;20047;-72
2022/01/15 12:02:56;;;;;;;4.68;3.72;;;;;;;;;;5104153;28;20044;-73
2022/01/15 12:05:29;;;;;;;5.78;3.05;;;;;;;;;;5108053;28;20126;-73
2022/01/15 12:08:00;;;;;;;4.68;3.38;;;;;;;;;;5109546;28;20036;-71
2022/01/15 12:10:47;;;;;;;4.97;4.00;;;;;;;;;;5106194;28;20046;-73
2022/01/15 12:13:18;;;;;;;6.60;3.90;;;;;;;;;;5110599;28;20038;-73
2022/01/15 12:15:49;;;;;;;4.95;3.00;;;;;;;;;;5101910;28;20533;-72
2022/01/15 12:18:21;;;;;;;5.85;3.10;;;;;;;;;;5107459;28;20050;-73
2022/01/15 12:20:54;;;;;;;6.72;3.55;;;;;;;;;;5109149;28;20036;-73
2022/01/15 12:23:22;;;;;;;3.67;2.90;;;;;;;;;;5099389;28;20043;-72
2022/01/15 12:25:51;;;;;;;4.47;2.97;;;;;;;;;;5097282;28;20040;-71
2022/01/15 12:28:21;;;;;;;5.30;3.13;;;;;;;;;;5097192;28;20072;-72
2022/01/15 12:30:50;;;;;;;4.32;3.20;;;;;;;;;;5101484;28;20036;-72
2022/01/15 12:33:22;;;;;;;4.47;3.03;;;;;;;;;;5102756;28;20040;-72
2022/01/15 12:35:58;;;;;;;4.63;2.90;;;;;;;;;;5096915;28;20399;-73
2022/01/15 12:38:29;;;;;;;5.55;3.22;;;;;;;;;;5096395;28;20048;-73
2022/01/15 12:41:04;;;;;;;4.10;2.80;;;;;;;;;;5096159;28;20040;-72
2022/01/15 12:43:33;;;;;;;3.00;2.70;;;;;;;;;;5096658;28;20111;-73
2022/01/15 12:46:00;;;;;;;5.05;2.88;;;;;;;;;;5096270;28;20493;-73
2022/01/15 12:48:29;;;;;;;4.65;2.90;;;;;;;;;;5096697;28;20063;-72
2022/01/15 12:51:00;;;;;;;5.90;3.42;;;;;;;;;;5100285;28;20032;-72
2022/01/15 12:53:35;;;;;;;5.18;3.38;;;;;;;;;;5113776;28;20474;-72
2022/01/15 12:56:09;;;;;;;5.43;3.70;;;;;;;;;;5115085;28;20594;-72
2022/01/15 12:58:39;;;;;;;6.07;3.60;;;;;;;;;;5107041;28;20051;-72
2022/01/15 13:01:10;;;;;;;6.97;4.70;;;;;;;;;;5114744;28;20043;-72
2022/01/15 13:03:40;;;;;;;6.55;4.53;;;;;;;;;;5115089;28;20046;-72
2022/01/15 13:06:08;;;;;;;6.85;3.65;;;;;;;;;;5113925;28;20044;-71
2022/01/15 13:08:41;;;;;;;4.20;2.92;;;;;;;;;;5114940;28;20449;-71
2022/01/15 13:13:44;;;;;;;6.13;2.40;;;;;;;;;;5111720;28;20119;-74
2022/01/15 13:16:20;;;;;;;5.00;2.45;;;;;;;;;;5114917;28;20039;-74
2022/01/15 13:18:58;;;;;;;5.43;2.67;;;;;;;;;;5112963;28;20040;-73
2022/01/15 13:21:27;;;;;;;5.88;2.50;;;;;;;;;;5095298;28;20458;-72
2022/01/15 13:24:03;;;;;;;4.38;2.63;;;;;;;;;;5097385;28;20398;-71
2022/01/15 13:26:33;;;;;;;7.45;2.50;;;;;;;;;;5113015;28;20866;-74
2022/01/15 13:29:14;;;;;;;5.57;2.70;;;;;;;;;;5096273;28;20047;-71
2022/01/15 13:31:43;;;;;;;6.47;2.83;;;;;;;;;;5114404;28;20039;-71
2022/01/15 13:34:13;;;;;;;5.60;2.88;;;;;;;;;;5114586;28;20566;-74
2022/01/15 13:36:42;;;;;;;5.57;2.90;;;;;;;;;;5096860;28;20156;-72
2022/01/15 13:39:10;;;;;;;4.00;2.58;;;;;;;;;;5112439;28;20039;-74
2022/01/15 13:41:41;;;;;;;5.78;2.75;;;;;;;;;;5114558;28;20471;-73
2022/01/15 13:44:10;;;;;;;3.28;2.50;;;;;;;;;;5111977;28;20040;-74
2022/01/15 13:46:42;;;;;;;5.35;2.95;;;;;;;;;;5114755;28;20043;-73
2022/01/15 13:49:12;;;;;;;7.30;3.38;;;;;;;;;;5111892;28;20521;-72
2022/01/15 13:55:06;;;;;;;5.25;2.95;;;;;;;;;;5113368;28;20111;-72
2022/01/15 13:57:34;;;;;;;3.53;2.53;;;;;;;;;;5112267;28;20498;-75
2022/01/15 14:00:07;;;;;;;7.10;3.05;;;;;;;;;;5096110;28;20051;-72
2022/01/15 14:02:35;;;;;;;9.27;3.33;;;;;;;;;;5112440;28;20036;-72
2022/01/15 14:05:29;;;;;;;9.35;3.30;;;;;;;;;;5067299;28;20040;-72
2022/01/15 14:07:56;;;;;;;3.60;2.60;;;;;;;;;;5111084;28;20039;-74
2022/01/15 14:10:29;;;;;;;6.05;2.92;;;;;;;;;;5114170;28;20067;-72
2022/01/15 14:13:02;;;;;;;3.67;2.40;;;;;;;;;;5112552;28;20044;-73
2022/01/15 14:15:36;;;;;;;6.60;3.00;;;;;;;;;;5113828;28;20131;-72
2022/01/15 14:18:11;;;;;;;6.40;2.95;;;;;;;;;;5113203;28;20471;-74
2022/01/15 14:20:55;;;;;;;4.65;2.50;;;;;;;;;;5111307;28;20049;-72
2022/01/15 14:23:28;;;;;;;4.57;3.10;;;;;;;;;;5086848;28;20046;-75
2022/01/15 14:25:56;;;;;;;7.20;2.55;;;;;;;;;;5111683;28;20044;-75
2022/01/15 14:28:23;;;;;;;5.00;2.72;;;;;;;;;;5093132;28;20115;-72
2022/01/15 14:30:53;;;;;;;4.50;2.88;;;;;;;;;;5113526;28;20559;-72
2022/01/15 14:33:22;;;;;;;6.00;2.70;;;;;;;;;;5095317;28;20062;-73
2022/01/15 14:35:50;;;;;;;6.68;2.80;;;;;;;;;;5113934;28;20059;-75
2022/01/15 14:38:19;;;;;;;6.85;2.70;;;;;;;;;;5113548;28;20165;-75
2022/01/15 14:40:49;;;;;;;6.45;2.72;;;;;;;;;;5113241;28;20479;-73
2022/01/15 14:43:32;;;;;;;6.65;2.88;;;;;;;;;;5095604;28;20551;-76
2022/01/15 14:46:02;;;;;;;6.43;2.90;;;;;;;;;;5113168;28;20195;-73
2022/01/15 14:48:34;;;;;;;6.03;3.17;;;;;;;;;;5111001;28;20031;-76
2022/01/15 14:51:02;;;;;;;8.03;3.10;;;;;;;;;;5112740;28;20039;-74
2022/01/15 14:53:30;;;;;;;4.90;3.08;;;;;;;;;;5093952;28;20035;-74
2022/01/15 14:56:00;;;;;;;8.82;3.05;;;;;;;;;;5112153;28;20142;-75
2022/01/15 14:58:28;;;;;;;7.65;3.20;;;;;;;;;;5110374;28;20118;-75
2022/01/15 15:00:56;;;;;;;6.47;3.28;;;;;;;;;;5093745;28;20560;-74
2022/01/15 15:03:24;;;;;;;5.38;3.10;;;;;;;;;;5109151;28;20068;-75
2022/01/15 15:05:51;;;;;;;5.35;2.97;;;;;;;;;;5112366;28;20052;-74
2022/01/15 15:08:19;;;;;;;6.28;3.40;;;;;;;;;;5112393;28;20062;-71
2022/01/15 15:10:50;;;;;;;5.28;2.95;;;;;;;;;;5092855;28;20054;-71
2022/01/15 15:13:20;;;;;;;6.25;3.05;;;;;;;;;;5111239;28;20039;-72
2022/01/15 15:15:48;;;;;;;5.82;2.97;;;;;;;;;;5113072;28;20039;-72
2022/01/15 15:18:16;;;;;;;4.40;2.88;;;;;;;;;;5112824;28;20467;-71
2022/01/15 15:20:43;;;;;;;3.47;2.65;;;;;;;;;;5112920;28;20032;-72
2022/01/15 15:23:11;;;;;;;10.43;3.03;;;;;;;;;;5108280;28;20047;-72
2022/01/15 15:25:39;;;;;;;8.00;3.10;;;;;;;;;;5106106;28;20501;-71
2022/01/15 15:28:07;;;;;;;5.60;3.30;;;;;;;;;;5105727;28;20423;-74
2022/01/15 15:30:35;;;;;;;10.10;3.45;;;;;;;;;;5109310;28;20120;-71